South Seaville, New Jersey
Current Conditions -  °F | °C
As of 8:35 PM on Sunday 23 Nov 2014 (Local Time) from KWWD Reporting Station
Overcast Overcast  
Wind Chill: 55°   Ceiling: 5000
Heat Index: 55°   Visibility: 10mi
Dew Point: 50°   Wind: 14mph
Humidity: 82%   Direction: 140°SE
Pressure: 30.04"   Gusts: 17mph
Location:  39.18°N, 74.76°W
Report Text: KWWD 240135Z AUTO 14012G15KT 10SM OVC050 13/10 A3004 RMK AO1
Loading
Personal Weather Stations






























Interactive Weather Map New forecast layout! Learn more

10-Day Weather Forecast

Advertisements
Track Severe Weather on mobile